Time;durP1;ratioP1;P1;durP2;ratioP2;P2;SDS_P1;SDS_P2;PMS_P1;PMS_P2;Temp;Humidity;BMP_temperature;BMP_pressure;BME280_temperature;BME280_humidity;BME280_pressure;Samples;Min_cycle;Max_cycle;Signal;HPM_P1;HPM_P2
2022/05/27 00:01:39;;;;;;;0.90;0.90;;;16.70;99.90;;;;;;5208949;28;20105;-78
2022/05/27 00:04:10;;;;;;;0.95;0.95;;;16.60;99.90;;;;;;5202762;28;20412;-76
2022/05/27 00:06:44;;;;;;;1.05;1.00;;;16.50;99.90;;;;;;5226050;28;20025;-79
2022/05/27 00:09:15;;;;;;;0.90;0.90;;;16.50;99.90;;;;;;5210020;28;20030;-75
2022/05/27 00:11:47;;;;;;;0.80;0.80;;;16.50;99.90;;;;;;5205120;28;20038;-78
2022/05/27 00:14:20;;;;;;;0.80;0.80;;;16.50;99.90;;;;;;5201905;28;20028;-76
2022/05/27 00:16:53;;;;;;;0.75;0.75;;;16.50;99.90;;;;;;5198065;28;20626;-77
2022/05/27 00:19:27;;;;;;;0.98;0.98;;;16.50;99.90;;;;;;5226578;28;20374;-80
2022/05/27 00:21:58;;;;;;;0.90;0.85;;;16.30;99.90;;;;;;5207991;28;20036;-79
2022/05/27 00:24:32;;;;;;;0.82;0.82;;;16.10;99.90;;;;;;5208871;28;20017;-77
2022/05/27 00:27:08;;;;;;;1.13;1.03;;;16.10;99.90;;;;;;5192875;28;20045;-76
2022/05/27 00:29:39;;;;;;;1.10;1.10;;;16.20;99.90;;;;;;5207714;28;20029;-77
2022/05/27 00:32:11;;;;;;;1.65;0.85;;;16.30;99.90;;;;;;5190319;28;20028;-76
2022/05/27 00:34:46;;;;;;;1.83;1.00;;;16.30;99.90;;;;;;5190180;28;20029;-77
2022/05/27 00:37:17;;;;;;;1.40;1.30;;;16.30;99.90;;;;;;5206632;28;20053;-76
2022/05/27 00:39:49;;;;;;;0.80;0.80;;;16.30;99.90;;;;;;5210386;28;20255;-77
2022/05/27 00:42:20;;;;;;;1.00;1.00;;;16.30;99.90;;;;;;5205799;28;20500;-78
2022/05/27 00:44:56;;;;;;;1.00;1.00;;;16.20;99.90;;;;;;5208917;28;20052;-77
2022/05/27 00:47:35;;;;;;;4.32;0.95;;;16.20;99.90;;;;;;5210618;28;20017;-77
2022/05/27 00:50:16;;;;;;;0.98;0.98;;;16.10;99.90;;;;;;5210578;28;20014;-76
2022/05/27 00:52:51;;;;;;;0.82;0.82;;;16.10;99.90;;;;;;5208559;28;20299;-77
2022/05/27 00:55:49;;;;;;;1.00;1.00;;;16.10;99.90;;;;;;5208278;28;20039;-78
2022/05/27 00:58:31;;;;;;;0.73;0.73;;;16.20;99.90;;;;;;5209794;28;20030;-78
2022/05/27 01:01:05;;;;;;;1.17;1.08;;;16.20;99.90;;;;;;5209906;28;20021;-75
2022/05/27 01:03:36;;;;;;;0.90;0.90;;;16.10;99.90;;;;;;5209487;28;20315;-76
2022/05/27 01:06:13;;;;;;;1.02;1.02;;;16.10;99.90;;;;;;5202166;28;20044;-78
2022/05/27 01:08:46;;;;;;;1.00;1.00;;;16.00;99.90;;;;;;5208611;28;20375;-78
2022/05/27 01:11:29;;;;;;;0.97;0.90;;;16.10;99.90;;;;;;5204977;28;20018;-75
2022/05/27 01:14:16;;;;;;;0.90;0.90;;;16.00;99.90;;;;;;5204984;28;20296;-80
2022/05/27 01:17:24;;;;;;;1.00;1.00;;;15.90;99.90;;;;;;5207832;28;20040;-80
2022/05/27 01:20:40;;;;;;;1.40;1.30;;;15.70;99.90;;;;;;5208265;28;20033;-75
2022/05/27 01:23:31;;;;;;;0.93;0.93;;;15.30;99.90;;;;;;5195502;28;20104;-78
2022/05/27 01:26:42;;;;;;;1.58;1.10;;;14.90;99.90;;;;;;5182216;28;20025;-81
2022/05/27 01:29:32;;;;;;;1.20;0.90;;;14.70;99.90;;;;;;5178404;28;20032;-79
2022/05/27 01:32:17;;;;;;;0.90;0.90;;;14.40;99.90;;;;;;5207288;28;20254;-81
2022/05/27 01:35:25;;;;;;;1.00;1.00;;;14.30;99.90;;;;;;5189552;28;20044;-77
2022/05/27 01:38:39;;;;;;;1.20;1.20;;;14.10;99.90;;;;;;5188936;28;20042;-78
2022/05/27 01:41:28;;;;;;;1.00;1.00;;;14.10;99.90;;;;;;5197136;28;20039;-77
2022/05/27 01:44:11;;;;;;;1.10;1.10;;;14.10;99.90;;;;;;5204202;28;20030;-75
2022/05/27 01:46:45;;;;;;;3.47;1.20;;;14.10;99.90;;;;;;5187629;28;20026;-76
2022/05/27 01:49:37;;;;;;;0.90;0.90;;;14.20;99.90;;;;;;5188915;28;20030;-79
2022/05/27 01:52:39;;;;;;;0.98;0.98;;;14.20;99.90;;;;;;5199903;28;20035;-74
2022/05/27 01:55:14;;;;;;;1.35;1.25;;;14.20;99.90;;;;;;5209049;28;20016;-76
2022/05/27 01:58:08;;;;;;;0.93;0.80;;;14.30;99.90;;;;;;5211378;28;20355;-75
2022/05/27 02:00:43;;;;;;;0.82;0.82;;;14.30;99.90;;;;;;5198774;28;20026;-78
2022/05/27 02:03:34;;;;;;;1.08;1.08;;;14.30;99.90;;;;;;5196186;28;20258;-78
2022/05/27 02:06:27;;;;;;;0.80;0.80;;;14.40;99.90;;;;;;5192588;28;20034;-78
2022/05/27 02:09:13;;;;;;;0.90;0.90;;;14.40;99.90;;;;;;5206123;28;20326;-78
2022/05/27 02:11:48;;;;;;;0.90;0.90;;;14.40;99.90;;;;;;5212256;28;20021;-75
2022/05/27 02:14:50;;;;;;;1.08;0.98;;;14.40;99.90;;;;;;5212954;28;20031;-75
2022/05/27 02:17:27;;;;;;;1.30;1.20;;;14.40;99.90;;;;;;5212328;28;20042;-78
2022/05/27 02:20:13;;;;;;;0.93;0.93;;;14.40;99.90;;;;;;5212968;28;20021;-75
2022/05/27 02:22:53;;;;;;;1.30;1.23;;;14.40;99.90;;;;;;5212802;28;20196;-77
2022/05/27 02:25:39;;;;;;;1.33;1.10;;;14.30;99.90;;;;;;5212942;28;20055;-76
2022/05/27 02:28:16;;;;;;;3.80;1.05;;;14.30;99.90;;;;;;5211418;28;20344;-77
2022/05/27 02:30:54;;;;;;;1.10;1.10;;;14.20;99.90;;;;;;5212672;28;20025;-76
2022/05/27 02:36:49;;;;;;;0.90;0.90;;;14.10;99.90;;;;;;5212162;28;20066;-77
2022/05/27 02:39:21;;;;;;;1.00;1.00;;;14.10;99.90;;;;;;5210700;28;21210;-80
2022/05/27 02:42:09;;;;;;;1.73;1.10;;;14.10;99.90;;;;;;5212044;28;20035;-76
2022/05/27 02:45:14;;;;;;;1.00;1.00;;;14.10;99.90;;;;;;5212361;28;20494;-77
2022/05/27 02:47:53;;;;;;;0.95;0.93;;;14.10;99.90;;;;;;5212455;28;20032;-79
2022/05/27 02:50:41;;;;;;;1.05;1.02;;;14.10;99.90;;;;;;5211616;28;20040;-79
2022/05/27 02:53:36;;;;;;;1.40;1.30;;;14.20;99.90;;;;;;5211502;28;20044;-77
2022/05/27 02:56:22;;;;;;;1.33;1.20;;;14.10;99.90;;;;;;5212166;28;20022;-76
2022/05/27 02:58:56;;;;;;;1.10;1.10;;;14.00;99.90;;;;;;5212651;28;20036;-75
2022/05/27 03:01:32;;;;;;;0.80;0.80;;;14.00;99.90;;;;;;5211935;28;20013;-76
2022/05/27 03:04:05;;;;;;;2.85;1.23;;;14.00;99.90;;;;;;5211912;28;20039;-76
2022/05/27 03:06:52;;;;;;;1.00;1.00;;;14.00;99.90;;;;;;5207024;28;20039;-78
2022/05/27 03:09:38;;;;;;;0.90;0.90;;;14.20;99.90;;;;;;5210906;28;20689;-76
2022/05/27 03:12:34;;;;;;;1.17;1.10;;;14.40;99.90;;;;;;5211129;28;20505;-75
2022/05/27 03:15:24;;;;;;;0.98;0.98;;;14.60;99.90;;;;;;5212540;28;20013;-76
2022/05/27 03:18:16;;;;;;;0.80;0.80;;;14.80;99.90;;;;;;5211901;28;20039;-77
2022/05/27 03:21:01;;;;;;;1.23;1.17;;;14.80;99.90;;;;;;5210659;28;20040;-77
2022/05/27 03:23:48;;;;;;;0.80;0.80;;;15.10;99.90;;;;;;5210473;28;20391;-79
2022/05/27 03:26:55;;;;;;;1.23;1.20;;;15.20;99.90;;;;;;5211803;28;20017;-76
2022/05/27 03:29:32;;;;;;;0.80;0.80;;;15.40;99.90;;;;;;5212087;28;20021;-74
2022/05/27 03:32:25;;;;;;;1.15;1.15;;;15.50;99.90;;;;;;5210108;28;20032;-75
2022/05/27 03:35:13;;;;;;;0.90;0.90;;;15.70;99.90;;;;;;5193775;28;20030;-77
2022/05/27 03:38:09;;;;;;;0.95;0.95;;;15.80;99.90;;;;;;5211313;28;20030;-78
2022/05/27 03:41:26;;;;;;;0.90;0.90;;;16.10;99.90;;;;;;5187372;28;20034;-75
2022/05/27 03:43:58;;;;;;;0.70;0.70;;;16.40;99.90;;;;;;5190844;28;20029;-76
2022/05/27 03:46:38;;;;;;;1.88;0.90;;;16.50;99.90;;;;;;5195118;28;20021;-77
2022/05/27 03:49:12;;;;;;;1.13;1.13;;;16.60;99.90;;;;;;5211890;28;20375;-77
2022/05/27 03:52:11;;;;;;;0.80;0.80;;;16.70;99.90;;;;;;5210699;28;20031;-77
2022/05/27 03:54:43;;;;;;;1.48;1.15;;;16.90;99.90;;;;;;5189492;28;20041;-77
2022/05/27 03:57:20;;;;;;;1.23;0.95;;;17.20;99.90;;;;;;5189945;28;20026;-79
2022/05/27 03:59:52;;;;;;;1.20;1.00;;;17.30;99.90;;;;;;5195275;28;20017;-79
2022/05/27 04:02:26;;;;;;;0.80;0.80;;;17.30;99.90;;;;;;5205521;28;20028;-79
2022/05/27 04:04:59;;;;;;;0.80;0.80;;;17.50;99.90;;;;;;5186278;28;20054;-76
2022/05/27 04:07:33;;;;;;;0.90;0.90;;;17.50;99.90;;;;;;5210641;28;20262;-77
2022/05/27 04:10:08;;;;;;;0.98;0.98;;;17.60;99.90;;;;;;5203479;28;20033;-77
2022/05/27 04:12:42;;;;;;;0.90;0.90;;;17.70;99.90;;;;;;5210006;28;20025;-75
2022/05/27 04:15:18;;;;;;;0.90;0.90;;;17.60;99.90;;;;;;5208515;28;20188;-78
2022/05/27 04:17:49;;;;;;;1.80;1.00;;;17.70;99.90;;;;;;5189357;28;20028;-78
2022/05/27 04:20:22;;;;;;;1.00;1.00;;;17.80;99.90;;;;;;5189502;28;20543;-77
2022/05/27 04:22:56;;;;;;;0.80;0.80;;;17.90;99.90;;;;;;5188485;28;20052;-77
2022/05/27 04:25:27;;;;;;;1.30;1.20;;;18.00;99.90;;;;;;5190128;28;20303;-78
2022/05/27 04:28:00;;;;;;;0.80;0.80;;;18.10;99.90;;;;;;5189967;28;20354;-77
2022/05/27 04:30:34;;;;;;;0.90;0.90;;;18.30;99.90;;;;;;5199553;28;20017;-78
2022/05/27 04:33:05;;;;;;;2.17;1.20;;;18.50;99.90;;;;;;5209145;28;20017;-78
2022/05/27 04:35:39;;;;;;;1.85;0.90;;;18.70;99.90;;;;;;5209804;28;20032;-76
2022/05/27 04:38:11;;;;;;;3.38;0.90;;;18.90;99.90;;;;;;5209897;28;20036;-80
2022/05/27 04:40:42;;;;;;;0.80;0.80;;;18.90;99.90;;;;;;5190367;28;20029;-78
2022/05/27 04:43:16;;;;;;;0.70;0.70;;;19.00;99.90;;;;;;5188532;28;20036;-78
2022/05/27 04:45:52;;;;;;;0.93;0.90;;;19.00;99.90;;;;;;5188177;28;20034;-76
2022/05/27 04:48:27;;;;;;;0.77;0.77;;;19.20;99.90;;;;;;5188244;28;20392;-79
2022/05/27 04:50:58;;;;;;;1.13;0.75;;;19.20;99.90;;;;;;5188244;28;20034;-78
2022/05/27 04:53:32;;;;;;;1.00;1.00;;;19.40;99.90;;;;;;5189348;28;20033;-78
2022/05/27 04:56:03;;;;;;;0.90;0.90;;;19.20;99.90;;;;;;5203501;28;20032;-77
2022/05/27 04:58:35;;;;;;;0.80;0.80;;;18.90;99.90;;;;;;5184604;28;20332;-81
2022/05/27 05:01:08;;;;;;;0.90;0.90;;;18.50;99.90;;;;;;5193848;28;20070;-79
2022/05/27 05:03:42;;;;;;;0.70;0.70;;;18.40;99.90;;;;;;5205600;28;20993;-76
2022/05/27 05:06:13;;;;;;;0.60;0.60;;;18.30;99.90;;;;;;5215251;28;20051;-76
2022/05/27 05:08:47;;;;;;;0.80;0.80;;;18.10;99.90;;;;;;5209919;28;20026;-78
2022/05/27 05:11:18;;;;;;;1.17;1.10;;;18.10;99.90;;;;;;5197754;28;20024;-77
2022/05/27 05:13:52;;;;;;;1.05;0.88;;;18.00;99.90;;;;;;5189682;28;20218;-77
2022/05/27 05:16:24;;;;;;;1.27;1.17;;;17.90;99.90;;;;;;5189896;28;20061;-76
2022/05/27 05:18:55;;;;;;;1.35;1.00;;;18.00;99.90;;;;;;5189648;28;20037;-81
2022/05/27 05:21:26;;;;;;;1.40;1.27;;;18.10;99.90;;;;;;5188378;28;20028;-76
2022/05/27 05:24:00;;;;;;;0.60;0.60;;;18.40;99.90;;;;;;5188040;28;20040;-77
2022/05/27 05:26:31;;;;;;;1.50;1.30;;;18.60;99.90;;;;;;5203965;28;20029;-78
2022/05/27 05:29:02;;;;;;;0.75;0.75;;;18.90;99.90;;;;;;5208463;28;20288;-76
2022/05/27 05:31:37;;;;;;;1.65;1.10;;;19.10;99.90;;;;;;5209881;28;20053;-76
2022/05/27 05:34:08;;;;;;;0.70;0.70;;;19.40;99.90;;;;;;5209658;28;20029;-77
2022/05/27 05:36:42;;;;;;;0.77;0.77;;;19.50;99.90;;;;;;5192057;28;20217;-78
2022/05/27 05:39:16;;;;;;;0.70;0.70;;;19.40;99.90;;;;;;5209660;28;20040;-80
2022/05/27 05:41:56;;;;;;;1.00;1.00;;;19.40;99.90;;;;;;5203706;28;20041;-80
2022/05/27 05:44:30;;;;;;;1.83;1.10;;;19.60;99.90;;;;;;5209196;28;20029;-77
2022/05/27 05:47:06;;;;;;;0.93;0.93;;;19.60;99.90;;;;;;5191898;28;20032;-80
2022/05/27 05:49:41;;;;;;;0.80;0.80;;;19.70;99.90;;;;;;5208691;28;20021;-80
2022/05/27 05:52:18;;;;;;;0.70;0.70;;;19.80;99.90;;;;;;5185550;28;20039;-78
2022/05/27 05:54:52;;;;;;;0.82;0.80;;;19.80;99.90;;;;;;5195448;28;20029;-77
2022/05/27 05:57:28;;;;;;;1.00;1.00;;;20.10;99.90;;;;;;5203832;28;20064;-77
2022/05/27 06:00:00;;;;;;;0.90;0.90;;;20.20;99.90;;;;;;5208394;28;20098;-76
2022/05/27 06:02:31;;;;;;;1.05;0.80;;;20.10;99.90;;;;;;5206652;28;20029;-81
2022/05/27 06:05:26;;;;;;;1.23;1.13;;;20.00;99.90;;;;;;5206744;28;20059;-80
2022/05/27 06:08:01;;;;;;;0.80;0.80;;;20.30;99.90;;;;;;5213735;28;20030;-77
2022/05/27 06:10:33;;;;;;;1.27;0.90;;;20.50;99.90;;;;;;5206066;28;20025;-79
2022/05/27 06:13:04;;;;;;;0.80;0.80;;;20.40;99.90;;;;;;5206962;28;20025;-81
2022/05/27 06:15:35;;;;;;;2.08;0.80;;;20.30;99.90;;;;;;5200555;28;20036;-79
2022/05/27 06:18:07;;;;;;;1.65;0.60;;;20.70;99.90;;;;;;5195954;28;20032;-80
2022/05/27 06:20:40;;;;;;;0.70;0.70;;;20.70;99.90;;;;;;5206538;28;20035;-78
2022/05/27 06:23:14;;;;;;;1.20;0.65;;;20.40;99.90;;;;;;5220871;28;20009;-78
2022/05/27 06:25:45;;;;;;;2.40;0.63;;;20.40;99.90;;;;;;5201436;28;20025;-76
2022/05/27 06:36:53;;;;;;;1.15;0.77;;;20.50;99.90;;;;;;5188043;28;20030;-80
2022/05/27 06:39:27;;;;;;;2.90;0.77;;;20.50;99.90;;;;;;5210825;28;20021;-78
2022/05/27 06:42:01;;;;;;;1.05;0.77;;;20.70;99.90;;;;;;5201312;28;20042;-79
2022/05/27 06:44:32;;;;;;;0.80;0.80;;;20.90;99.90;;;;;;5223291;28;20033;-79
2022/05/27 06:47:13;;;;;;;1.23;0.93;;;21.00;99.90;;;;;;5189959;28;20044;-78
2022/05/27 06:49:45;;;;;;;0.80;0.80;;;21.30;99.90;;;;;;5191269;28;20052;-77
2022/05/27 06:52:18;;;;;;;0.95;0.70;;;21.30;99.90;;;;;;5206238;28;20025;-80
2022/05/27 06:54:52;;;;;;;0.60;0.60;;;21.40;99.90;;;;;;5220789;28;20043;-78
2022/05/27 06:57:23;;;;;;;0.60;0.60;;;21.10;99.90;;;;;;5203198;28;20045;-78
2022/05/27 06:59:58;;;;;;;0.80;0.80;;;20.70;99.90;;;;;;5213574;28;20017;-80
2022/05/27 07:02:31;;;;;;;0.70;0.70;;;20.70;99.90;;;;;;5230898;28;20329;-75
2022/05/27 07:05:05;;;;;;;1.50;0.70;;;20.90;99.90;;;;;;5201246;28;20501;-79
2022/05/27 07:07:39;;;;;;;0.75;0.75;;;21.00;99.90;;;;;;5190419;28;20522;-80
2022/05/27 07:10:11;;;;;;;2.10;0.90;;;21.10;99.90;;;;;;5190887;28;20038;-81
2022/05/27 07:12:45;;;;;;;0.70;0.70;;;21.50;99.90;;;;;;5182956;28;20025;-79
2022/05/27 07:15:21;;;;;;;2.80;1.48;;;21.40;99.90;;;;;;5189808;28;20031;-79
2022/05/27 07:17:55;;;;;;;0.70;0.70;;;21.90;99.90;;;;;;5185853;28;20037;-77
2022/05/27 07:20:27;;;;;;;;;;;22.00;99.90;;;;;;5190363;28;20026;-76
2022/05/27 07:23:00;;;;;;;1.55;0.70;;;21.90;99.90;;;;;;5189340;28;19902;-79
2022/05/27 07:25:35;;;;;;;0.60;0.60;;;22.10;99.90;;;;;;5200017;28;20034;-79
2022/05/27 07:28:07;;;;;;;3.90;0.90;;;22.40;99.90;;;;;;5178199;28;20053;-77
2022/05/27 07:30:38;;;;;;;0.70;0.70;;;22.80;99.90;;;;;;5169130;28;20041;-76
2022/05/27 07:33:10;;;;;;;0.68;0.68;;;22.70;99.90;;;;;;5153468;28;20413;-81
2022/05/27 07:35:41;;;;;;;0.60;0.60;;;22.60;99.90;;;;;;5182406;28;20040;-77
2022/05/27 07:38:13;;;;;;;0.73;0.50;;;22.20;99.90;;;;;;5188684;28;20034;-78
2022/05/27 07:40:44;;;;;;;0.70;0.70;;;22.50;99.90;;;;;;5191153;28;20026;-77
2022/05/27 07:43:19;;;;;;;0.85;0.85;;;22.20;99.90;;;;;;5190858;28;20516;-78
2022/05/27 07:45:56;;;;;;;0.60;0.60;;;22.30;99.90;;;;;;5190577;28;20545;-78
2022/05/27 07:48:31;;;;;;;0.90;0.90;;;22.50;99.90;;;;;;5181012;28;20018;-77
2022/05/27 07:51:06;;;;;;;0.60;0.60;;;22.60;99.90;;;;;;5179939;28;20030;-77
2022/05/27 07:53:38;;;;;;;1.35;0.65;;;22.30;99.90;;;;;;5177977;28;20026;-77
2022/05/27 07:56:11;;;;;;;0.75;0.75;;;22.50;99.90;;;;;;5190105;28;20038;-78
2022/05/27 07:58:44;;;;;;;0.85;0.85;;;22.40;99.90;;;;;;5178014;28;20052;-77
2022/05/27 08:01:15;;;;;;;2.20;0.90;;;22.20;99.90;;;;;;5179603;28;20226;-77
2022/05/27 08:03:47;;;;;;;0.70;0.70;;;22.50;99.90;;;;;;5180379;28;20029;-80
2022/05/27 08:06:18;;;;;;;0.70;0.70;;;22.40;99.90;;;;;;5209973;28;20053;-79
2022/05/27 08:08:49;;;;;;;0.70;0.70;;;22.70;99.90;;;;;;5194947;28;20052;-76
2022/05/27 08:11:20;;;;;;;0.90;0.60;;;23.00;99.90;;;;;;5188968;28;20041;-77
2022/05/27 08:13:55;;;;;;;0.65;0.65;;;23.10;99.90;;;;;;5196288;28;20088;-77
2022/05/27 08:16:27;;;;;;;0.85;0.85;;;23.30;99.90;;;;;;5183649;28;20039;-80
2022/05/27 08:18:58;;;;;;;0.70;0.70;;;23.60;99.90;;;;;;5201681;28;20045;-78
2022/05/27 08:21:29;;;;;;;0.77;0.77;;;23.30;99.90;;;;;;5198566;28;20385;-78
2022/05/27 08:24:00;;;;;;;0.60;0.60;;;23.50;99.90;;;;;;5198553;28;20244;-78
2022/05/27 08:26:31;;;;;;;0.70;0.70;;;24.20;99.90;;;;;;5202237;28;20139;-78
2022/05/27 08:29:03;;;;;;;0.82;0.82;;;23.90;99.90;;;;;;5200887;28;20043;-77
2022/05/27 08:31:35;;;;;;;2.00;0.65;;;24.00;99.90;;;;;;5198067;28;20052;-79
2022/05/27 08:39:51;;;;;;;2.45;0.80;;;24.20;99.90;;;;;;5188896;28;20263;-77
2022/05/27 08:42:25;;;;;;;0.77;0.77;;;23.90;99.90;;;;;;5200728;28;20021;-78
2022/05/27 08:45:02;;;;;;;0.63;0.63;;;23.80;99.90;;;;;;5198260;28;20743;-74
2022/05/27 08:47:49;;;;;;;0.60;0.60;;;24.30;99.90;;;;;;5198233;28;20023;-75
2022/05/27 08:50:44;;;;;;;0.90;0.80;;;24.20;99.90;;;;;;5202668;28;20017;-78
2022/05/27 08:53:53;;;;;;;0.70;0.70;;;24.40;99.90;;;;;;5199338;28;20021;-78
2022/05/27 08:59:40;;;;;;;0.68;0.68;;;23.20;99.90;;;;;;5203231;28;20017;-79
2022/05/27 09:02:36;;;;;;;0.60;0.60;;;23.60;99.90;;;;;;5181810;28;20300;-78
2022/05/27 09:05:25;;;;;;;0.80;0.80;;;23.60;99.90;;;;;;5191096;28;20052;-77
2022/05/27 09:08:17;;;;;;;0.82;0.65;;;23.70;99.90;;;;;;5200538;28;20036;-78
2022/05/27 09:10:58;;;;;;;0.77;0.70;;;23.30;99.90;;;;;;5183766;28;20191;-78
2022/05/27 09:13:35;;;;;;;0.50;0.50;;;23.10;99.90;;;;;;5184129;28;20030;-77
2022/05/27 09:16:31;;;;;;;0.57;0.57;;;23.50;99.90;;;;;;5193548;28;20213;-78
2022/05/27 09:19:32;;;;;;;1.00;1.00;;;23.60;99.90;;;;;;5196450;28;20369;-77
2022/05/27 09:22:31;;;;;;;0.98;0.80;;;23.60;99.90;;;;;;5189864;28;20250;-77
2022/05/27 09:25:32;;;;;;;2.00;0.82;;;23.60;99.90;;;;;;5188136;28;20032;-78
2022/05/27 09:28:39;;;;;;;0.63;0.63;;;23.50;99.90;;;;;;5187708;28;20269;-77
2022/05/27 09:31:20;;;;;;;0.50;0.50;;;24.00;99.90;;;;;;5193791;28;20029;-76
2022/05/27 09:33:54;;;;;;;0.57;0.57;;;23.70;99.90;;;;;;5200137;28;20036;-76
2022/05/27 09:36:36;;;;;;;1.65;0.82;;;24.10;99.90;;;;;;5199995;28;20049;-76
2022/05/27 09:39:15;;;;;;;0.65;0.65;;;24.10;99.90;;;;;;5203435;28;20347;-78
2022/05/27 09:42:19;;;;;;;0.68;0.68;;;24.20;99.90;;;;;;5199003;28;20460;-76
2022/05/27 09:44:55;;;;;;;0.88;0.88;;;24.40;99.90;;;;;;5201106;28;20044;-78
2022/05/27 09:47:34;;;;;;;0.93;0.80;;;24.50;99.90;;;;;;5196340;28;20029;-78
2022/05/27 09:50:14;;;;;;;0.75;0.50;;;24.40;99.90;;;;;;5199562;28;20036;-78
2022/05/27 09:52:49;;;;;;;0.52;0.52;;;24.50;99.90;;;;;;5195065;28;20072;-76
2022/05/27 09:55:40;;;;;;;0.70;0.68;;;24.60;99.90;;;;;;5211458;28;20025;-77
2022/05/27 09:58:12;;;;;;;0.70;0.70;;;25.30;99.90;;;;;;5180403;28;20041;-77
2022/05/27 10:00:46;;;;;;;0.65;0.65;;;24.90;99.90;;;;;;5198091;28;20018;-78
2022/05/27 10:03:32;;;;;;;1.95;0.85;;;25.00;99.90;;;;;;5197641;28;20027;-77
2022/05/27 10:06:12;;;;;;;0.55;0.55;;;25.30;99.90;;;;;;5203500;28;20130;-77
2022/05/27 10:08:44;;;;;;;0.70;0.70;;;25.20;99.90;;;;;;5195341;28;20323;-78
2022/05/27 10:11:17;;;;;;;0.68;0.68;;;25.20;99.90;;;;;;5195261;28;20231;-78
2022/05/27 10:14:13;;;;;;;0.70;0.70;;;25.10;99.90;;;;;;5196618;28;20017;-77
2022/05/27 10:17:10;;;;;;;0.75;0.75;;;25.50;99.90;;;;;;5194307;28;20035;-77
2022/05/27 10:19:49;;;;;;;0.60;0.60;;;25.50;99.90;;;;;;5195615;28;20200;-76
2022/05/27 10:22:25;;;;;;;0.60;0.60;;;24.90;99.90;;;;;;5197471;28;20125;-77
2022/05/27 10:25:11;;;;;;;0.57;0.57;;;25.00;99.90;;;;;;5201190;28;20031;-78
2022/05/27 10:27:53;;;;;;;0.60;0.60;;;25.50;99.90;;;;;;5202098;28;20032;-77
2022/05/27 10:30:30;;;;;;;1.35;0.93;;;25.30;99.90;;;;;;5185279;28;20219;-78
2022/05/27 10:33:38;;;;;;;0.60;0.60;;;25.50;99.90;;;;;;5202807;28;20021;-77
2022/05/27 10:36:33;;;;;;;0.82;0.70;;;25.90;99.90;;;;;;5195471;28;20041;-78
2022/05/27 10:39:10;;;;;;;;;;;27.00;99.90;;;;;;5182208;28;20221;-79
2022/05/27 10:42:05;;;;;;;0.85;0.85;;;27.30;99.90;;;;;;5182048;28;19974;-78
2022/05/27 10:44:55;;;;;;;0.85;0.70;;;26.40;99.90;;;;;;5182206;28;20050;-78
2022/05/27 10:47:56;;;;;;;0.90;0.70;;;26.50;99.90;;;;;;5199246;28;20497;-78
2022/05/27 10:50:52;;;;;;;0.65;0.60;;;27.40;99.90;;;;;;5201801;28;20025;-77
2022/05/27 10:53:26;;;;;;;0.88;0.70;;;27.40;99.90;;;;;;5181764;28;20044;-79
2022/05/27 10:56:34;;;;;;;0.90;0.80;;;27.50;99.90;;;;;;5181781;28;20032;-77
2022/05/27 11:02:26;;;;;;;0.70;0.70;;;29.20;99.90;;;;;;5196958;28;20025;-78
2022/05/27 11:05:20;;;;;;;0.60;0.57;;;28.70;99.90;;;;;;5197034;28;20266;-78
2022/05/27 11:08:19;;;;;;;1.05;0.70;;;28.10;99.90;;;;;;5200409;28;20243;-78
2022/05/27 11:11:35;;;;;;;0.60;0.60;;;27.90;99.90;;;;;;5200536;28;20040;-77
2022/05/27 11:17:16;;;;;;;0.82;0.82;;;27.30;99.90;;;;;;5191343;28;20041;-78
2022/05/27 11:20:24;;;;;;;1.98;0.73;;;27.50;99.90;;;;;;5196674;28;20050;-80
2022/05/27 11:23:14;;;;;;;0.50;0.47;;;27.60;99.90;;;;;;5198879;28;20021;-79
2022/05/27 11:26:01;;;;;;;0.63;0.63;;;28.30;99.90;;;;;;5203024;28;20023;-81
2022/05/27 11:28:56;;;;;;;0.88;0.85;;;29.10;99.90;;;;;;5208156;28;20328;-80
2022/05/27 11:31:46;;;;;;;1.27;0.80;;;29.60;99.90;;;;;;5195707;28;20033;-79
2022/05/27 11:34:33;;;;;;;1.35;0.95;;;28.10;99.90;;;;;;5201735;28;20499;-81
2022/05/27 11:37:16;;;;;;;0.65;0.65;;;27.30;99.90;;;;;;5200227;28;20039;-78
2022/05/27 11:40:20;;;;;;;0.60;0.60;;;27.30;99.90;;;;;;5214664;28;20041;-77
2022/05/27 11:43:07;;;;;;;0.80;0.80;;;28.40;99.90;;;;;;5205631;28;20033;-78
2022/05/27 11:46:13;;;;;;;0.70;0.65;;;28.30;99.90;;;;;;5177248;28;20232;-77
2022/05/27 11:49:01;;;;;;;0.65;0.60;;;27.80;99.90;;;;;;5186996;28;20047;-78
2022/05/27 11:51:55;;;;;;;0.65;0.65;;;28.60;99.90;;;;;;5201761;28;20436;-80
2022/05/27 11:54:53;;;;;;;1.13;0.73;;;28.60;99.90;;;;;;5197195;28;20630;-76
2022/05/27 11:57:57;;;;;;;0.63;0.63;;;28.70;99.90;;;;;;5191768;28;20041;-79
2022/05/27 12:00:36;;;;;;;0.70;0.70;;;29.00;99.90;;;;;;5206573;28;20036;-74
2022/05/27 12:03:19;;;;;;;1.33;0.70;;;29.10;99.90;;;;;;5207077;28;20036;-77
2022/05/27 12:05:56;;;;;;;0.70;0.70;;;28.60;99.90;;;;;;5212536;28;20064;-78
2022/05/27 12:08:53;;;;;;;0.80;0.80;;;28.30;99.90;;;;;;5209067;28;20025;-78
2022/05/27 12:11:30;;;;;;;1.02;0.80;;;29.80;99.90;;;;;;5199603;28;20022;-80
2022/05/27 12:14:29;;;;;;;1.00;0.98;;;29.50;99.90;;;;;;5196653;28;20033;-80
2022/05/27 12:17:04;;;;;;;0.65;0.60;;;28.90;99.90;;;;;;5204750;28;20044;-80
2022/05/27 12:19:42;;;;;;;1.20;0.60;;;28.50;99.90;;;;;;5204698;28;20037;-78
2022/05/27 12:22:25;;;;;;;0.70;0.70;;;29.10;99.90;;;;;;5185679;28;20513;-79
2022/05/27 12:25:19;;;;;;;0.88;0.60;;;29.20;99.90;;;;;;5193329;28;20288;-78
2022/05/27 12:27:53;;;;;;;0.70;0.70;;;29.30;99.90;;;;;;5188534;28;20022;-76
2022/05/27 12:30:32;;;;;;;1.30;0.90;;;29.00;99.90;;;;;;5190302;28;20051;-77
2022/05/27 12:33:06;;;;;;;0.77;0.77;;;29.30;99.90;;;;;;5195636;28;20030;-77
2022/05/27 12:35:39;;;;;;;0.50;0.50;;;29.40;99.90;;;;;;5194601;28;20621;-83
2022/05/27 12:38:11;;;;;;;0.55;0.50;;;29.70;99.90;;;;;;5202700;28;20037;-80
2022/05/27 12:41:07;;;;;;;0.98;0.82;;;29.40;99.90;;;;;;5203921;28;20025;-78
2022/05/27 12:43:55;;;;;;;0.70;0.70;;;28.70;99.90;;;;;;5197813;28;20024;-77
2022/05/27 12:46:50;;;;;;;0.70;0.68;;;28.60;99.90;;;;;;5201882;28;20021;-78
2022/05/27 12:49:26;;;;;;;0.60;0.60;;;29.20;99.90;;;;;;5206264;28;20052;-80
2022/05/27 12:51:58;;;;;;;0.93;0.70;;;29.80;99.90;;;;;;5207420;28;20039;-76
2022/05/27 12:54:41;;;;;;;0.70;0.70;;;29.80;99.90;;;;;;5191103;28;20044;-79
2022/05/27 13:01:04;;;;;;;0.80;0.80;;;29.60;99.90;;;;;;5203702;28;20043;-78
2022/05/27 13:03:48;;;;;;;0.82;0.82;;;30.90;99.90;;;;;;5199946;28;20033;-80
2022/05/27 13:06:19;;;;;;;1.58;0.80;;;30.20;99.90;;;;;;5176795;28;20070;-81
2022/05/27 13:08:51;;;;;;;0.70;0.70;;;29.60;99.90;;;;;;5207920;28;20460;-76
2022/05/27 13:11:31;;;;;;;0.60;0.60;;;29.00;99.90;;;;;;5182864;28;20046;-77
2022/05/27 13:14:06;;;;;;;0.70;0.70;;;29.60;99.90;;;;;;5204107;28;20491;-78
2022/05/27 13:16:56;;;;;;;2.25;0.70;;;29.90;99.90;;;;;;5188041;28;20056;-76
2022/05/27 13:19:42;;;;;;;0.70;0.70;;;29.80;99.90;;;;;;5193342;28;20036;-77
2022/05/27 13:22:49;;;;;;;0.70;0.70;;;30.20;99.90;;;;;;5194225;28;20029;-81
2022/05/27 13:25:29;;;;;;;2.13;0.88;;;30.70;99.90;;;;;;5191774;28;20030;-78
2022/05/27 13:28:04;;;;;;;0.63;0.63;;;30.60;99.90;;;;;;5183519;28;20033;-78
2022/05/27 13:31:03;;;;;;;0.70;0.70;;;29.40;99.90;;;;;;5189337;28;20091;-80
2022/05/27 13:33:45;;;;;;;0.50;0.50;;;29.40;99.90;;;;;;5189297;28;20025;-77
2022/05/27 13:36:22;;;;;;;4.97;1.00;;;29.90;99.90;;;;;;5188647;28;20047;-77
2022/05/27 13:39:07;;;;;;;1.27;0.82;;;30.30;99.90;;;;;;5184640;28;20042;-80
2022/05/27 13:41:52;;;;;;;0.70;0.70;;;29.90;99.90;;;;;;5192819;28;20029;-80
2022/05/27 13:44:24;;;;;;;1.00;0.90;;;29.20;99.90;;;;;;5184324;28;20038;-75
2022/05/27 13:47:03;;;;;;;0.70;0.70;;;28.90;99.90;;;;;;5191781;28;20042;-77
2022/05/27 13:49:43;;;;;;;0.70;0.70;;;29.00;99.90;;;;;;5183654;28;20033;-81
2022/05/27 13:52:27;;;;;;;1.20;0.93;;;30.00;99.90;;;;;;5205920;28;20487;-76
2022/05/27 13:55:26;;;;;;;0.70;0.70;;;30.30;99.90;;;;;;5188194;28;20037;-77
2022/05/27 13:58:03;;;;;;;0.80;0.80;;;30.00;99.90;;;;;;5197299;28;20479;-80
2022/05/27 14:00:38;;;;;;;0.55;0.55;;;29.40;99.90;;;;;;5210230;28;20033;-80
2022/05/27 14:03:24;;;;;;;0.98;0.98;;;29.60;99.90;;;;;;5171740;28;20034;-75
2022/05/27 14:06:03;;;;;;;0.75;0.68;;;29.90;99.90;;;;;;5180764;28;20041;-77
2022/05/27 14:08:48;;;;;;;0.73;0.73;;;29.70;99.90;;;;;;5191033;28;20021;-79
2022/05/27 14:11:35;;;;;;;0.63;0.60;;;28.90;99.90;;;;;;5215170;28;20494;-79
2022/05/27 14:14:10;;;;;;;1.77;0.65;;;28.40;99.90;;;;;;5209737;28;20363;-77
2022/05/27 14:16:46;;;;;;;2.15;0.70;;;28.50;99.90;;;;;;5207269;28;20036;-80
2022/05/27 14:19:30;;;;;;;0.68;0.60;;;27.90;99.90;;;;;;5214459;28;20026;-81
2022/05/27 14:22:43;;;;;;;0.60;0.60;;;27.70;99.90;;;;;;5206898;28;20042;-78
2022/05/27 14:25:32;;;;;;;0.65;0.65;;;28.20;99.90;;;;;;5188870;28;20032;-80
2022/05/27 14:28:18;;;;;;;0.60;0.60;;;28.00;99.90;;;;;;5223515;28;20010;-79
2022/05/27 14:31:15;;;;;;;1.65;0.82;;;28.30;99.90;;;;;;5207739;28;20029;-81